Time;durP1;ratioP1;P1;durP2;ratioP2;P2;SDS_P1;SDS_P2;PMS_P1;PMS_P2;Temp;Humidity;BMP_temperature;BMP_pressure;BME280_temperature;BME280_humidity;BME280_pressure;Samples;Min_cycle;Max_cycle;Signal;HPM_P1;HPM_P2
2023/10/26 00:01:44;;;;;;;20.98;8.93;;;;;;;;;;5023652;28;20036;-76
2023/10/26 00:04:09;;;;;;;17.17;8.70;;;;;;;;;;5024305;28;20037;-76
2023/10/26 00:06:35;;;;;;;17.80;8.80;;;;;;;;;;5024148;28;20025;-76
2023/10/26 00:09:00;;;;;;;16.48;8.13;;;;;;;;;;5024785;28;20013;-76
2023/10/26 00:11:25;;;;;;;18.42;8.90;;;;;;;;;;5023573;28;20041;-76
2023/10/26 00:13:51;;;;;;;18.52;9.07;;;;;;;;;;5025995;28;20029;-76
2023/10/26 00:16:16;;;;;;;16.52;8.65;;;;;;;;;;5024957;28;20034;-76
2023/10/26 00:18:41;;;;;;;16.27;8.82;;;;;;;;;;5007331;28;20041;-76
2023/10/26 00:21:07;;;;;;;18.15;8.18;;;;;;;;;;5024021;28;20087;-76
2023/10/26 00:23:32;;;;;;;15.57;8.30;;;;;;;;;;5039013;28;20044;-76
2023/10/26 00:25:57;;;;;;;16.05;8.68;;;;;;;;;;5045016;28;20037;-76
2023/10/26 00:28:23;;;;;;;19.10;8.75;;;;;;;;;;5044522;28;20040;-76
2023/10/26 00:30:48;;;;;;;17.25;9.23;;;;;;;;;;5045578;28;20032;-76
2023/10/26 00:33:13;;;;;;;21.80;9.60;;;;;;;;;;5045429;28;20531;-76
2023/10/26 00:35:39;;;;;;;17.30;9.00;;;;;;;;;;5044426;28;20499;-76
2023/10/26 00:38:04;;;;;;;20.10;10.10;;;;;;;;;;5045217;28;20037;-76
2023/10/26 00:40:29;;;;;;;19.35;9.00;;;;;;;;;;5044893;28;20036;-76
2023/10/26 00:43:02;;;;;;;21.55;9.35;;;;;;;;;;5044018;28;20043;-76
2023/10/26 00:45:34;;;;;;;14.65;8.60;;;;;;;;;;5045131;28;20017;-76
2023/10/26 00:48:00;;;;;;;16.15;8.57;;;;;;;;;;5027443;28;20040;-76
2023/10/26 00:50:26;;;;;;;18.33;8.80;;;;;;;;;;5026463;28;20071;-76
2023/10/26 00:52:52;;;;;;;20.30;8.63;;;;;;;;;;5004743;28;20092;-76
2023/10/26 00:55:18;;;;;;;21.20;9.10;;;;;;;;;;5005137;28;20037;-76
2023/10/26 00:57:43;;;;;;;18.98;9.18;;;;;;;;;;5009900;28;20037;-76
2023/10/26 01:00:09;;;;;;;17.08;8.45;;;;;;;;;;5025794;28;20021;-76
2023/10/26 01:02:36;;;;;;;19.70;8.75;;;;;;;;;;5025267;28;20484;-76
2023/10/26 01:05:03;;;;;;;18.13;9.27;;;;;;;;;;5026334;28;20025;-76
2023/10/26 01:07:28;;;;;;;23.45;8.70;;;;;;;;;;5034102;28;20043;-76
2023/10/26 01:09:53;;;;;;;19.63;9.25;;;;;;;;;;5041806;28;20033;-76
2023/10/26 01:12:19;;;;;;;17.67;8.82;;;;;;;;;;5033131;28;20405;-76
2023/10/26 01:14:44;;;;;;;16.48;8.55;;;;;;;;;;5008065;28;20072;-76
2023/10/26 01:17:11;;;;;;;19.30;8.52;;;;;;;;;;5025007;28;20091;-76
2023/10/26 01:19:45;;;;;;;16.77;8.38;;;;;;;;;;5024867;28;20041;-76
2023/10/26 01:22:10;;;;;;;17.52;8.38;;;;;;;;;;5024368;28;20030;-76
2023/10/26 01:24:36;;;;;;;19.40;7.82;;;;;;;;;;5024659;28;20032;-76
2023/10/26 01:27:02;;;;;;;15.13;7.68;;;;;;;;;;5006854;28;20028;-77
2023/10/26 01:29:27;;;;;;;15.43;7.80;;;;;;;;;;5006108;28;20034;-76
2023/10/26 01:31:53;;;;;;;15.13;7.80;;;;;;;;;;5024363;28;20040;-76
2023/10/26 01:34:18;;;;;;;17.05;7.95;;;;;;;;;;5024113;28;20087;-76
2023/10/26 01:36:44;;;;;;;18.48;8.18;;;;;;;;;;5024381;28;20063;-77
2023/10/26 01:39:09;;;;;;;18.23;8.23;;;;;;;;;;5006266;28;20063;-76
2023/10/26 01:41:34;;;;;;;16.63;8.10;;;;;;;;;;5006247;28;20064;-76
2023/10/26 01:44:00;;;;;;;16.83;8.30;;;;;;;;;;5023293;28;20037;-77
2023/10/26 01:46:25;;;;;;;15.57;7.55;;;;;;;;;;5006628;28;20091;-77
2023/10/26 01:48:51;;;;;;;13.98;7.50;;;;;;;;;;5024081;28;20033;-76
2023/10/26 01:51:16;;;;;;;16.52;7.45;;;;;;;;;;5023822;28;20083;-76
2023/10/26 01:53:42;;;;;;;19.92;7.38;;;;;;;;;;5024070;28;20547;-76
2023/10/26 01:56:08;;;;;;;18.15;7.88;;;;;;;;;;5022860;28;20535;-76
2023/10/26 01:58:33;;;;;;;15.95;7.30;;;;;;;;;;5022769;28;20052;-76
2023/10/26 02:00:58;;;;;;;14.38;7.18;;;;;;;;;;5023828;28;20431;-76
2023/10/26 02:03:24;;;;;;;15.65;7.55;;;;;;;;;;5021944;28;20485;-76
2023/10/26 02:05:49;;;;;;;15.15;7.38;;;;;;;;;;5023626;28;20024;-76
2023/10/26 02:08:14;;;;;;;15.48;7.47;;;;;;;;;;5022361;28;20072;-76
2023/10/26 02:10:41;;;;;;;13.85;6.80;;;;;;;;;;5023609;28;20460;-77
2023/10/26 02:13:07;;;;;;;14.75;7.28;;;;;;;;;;5016779;28;20041;-77
2023/10/26 02:15:32;;;;;;;14.85;7.03;;;;;;;;;;5023458;28;20032;-76
2023/10/26 02:17:57;;;;;;;14.75;7.07;;;;;;;;;;5024554;28;20029;-76
2023/10/26 02:20:23;;;;;;;16.98;7.70;;;;;;;;;;5023566;28;20033;-76
2023/10/26 02:22:48;;;;;;;13.32;6.78;;;;;;;;;;5024137;28;20056;-76
2023/10/26 02:25:14;;;;;;;14.43;6.85;;;;;;;;;;5027974;28;20037;-76
2023/10/26 02:27:39;;;;;;;15.90;6.78;;;;;;;;;;5038666;28;20050;-76
2023/10/26 02:30:05;;;;;;;19.52;7.18;;;;;;;;;;5040513;28;20036;-76
2023/10/26 02:32:32;;;;;;;15.73;7.57;;;;;;;;;;5027475;28;20055;-76
2023/10/26 02:34:57;;;;;;;14.18;6.95;;;;;;;;;;5025969;28;20033;-76
2023/10/26 02:37:22;;;;;;;14.18;7.22;;;;;;;;;;5009513;28;20052;-76
2023/10/26 02:39:48;;;;;;;15.30;7.30;;;;;;;;;;5026876;28;20128;-76
2023/10/26 02:42:13;;;;;;;17.10;7.43;;;;;;;;;;5009738;28;20097;-76
2023/10/26 02:44:38;;;;;;;17.08;7.30;;;;;;;;;;5027132;28;20041;-76
2023/10/26 02:47:04;;;;;;;15.32;7.90;;;;;;;;;;5028397;28;20045;-77
2023/10/26 02:49:30;;;;;;;18.27;8.15;;;;;;;;;;5017478;28;20059;-76
2023/10/26 02:51:56;;;;;;;18.13;7.70;;;;;;;;;;5032733;28;20116;-76
2023/10/26 02:54:22;;;;;;;15.68;7.30;;;;;;;;;;5002941;28;20901;-77
2023/10/26 02:56:48;;;;;;;15.80;7.07;;;;;;;;;;5007597;28;20497;-76
2023/10/26 02:59:13;;;;;;;17.58;7.18;;;;;;;;;;5024770;28;20053;-76
2023/10/26 03:01:38;;;;;;;17.35;7.90;;;;;;;;;;5026995;28;20048;-76
2023/10/26 03:04:04;;;;;;;17.80;7.78;;;;;;;;;;5027626;28;20160;-77
2023/10/26 03:06:36;;;;;;;16.17;7.57;;;;;;;;;;5026644;28;20037;-76
2023/10/26 03:09:01;;;;;;;20.67;8.07;;;;;;;;;;5009942;28;20025;-77
2023/10/26 03:11:26;;;;;;;18.25;8.88;;;;;;;;;;5026780;28;20041;-76
2023/10/26 03:13:52;;;;;;;17.40;7.50;;;;;;;;;;5013897;28;20034;-76
2023/10/26 03:16:17;;;;;;;16.20;7.90;;;;;;;;;;5010766;28;20033;-77
2023/10/26 03:18:43;;;;;;;15.52;7.97;;;;;;;;;;5006919;28;20049;-76
2023/10/26 03:21:08;;;;;;;17.00;8.07;;;;;;;;;;5007565;28;20060;-76
2023/10/26 03:23:33;;;;;;;18.40;7.88;;;;;;;;;;4988853;28;20129;-76
2023/10/26 03:25:59;;;;;;;17.00;7.53;;;;;;;;;;5006452;28;20038;-76
2023/10/26 03:28:25;;;;;;;18.67;7.78;;;;;;;;;;5006910;28;20424;-76
2023/10/26 03:30:50;;;;;;;21.40;8.27;;;;;;;;;;5006575;28;20576;-76
2023/10/26 03:33:16;;;;;;;18.00;8.18;;;;;;;;;;4989463;28;20036;-77
2023/10/26 03:35:41;;;;;;;22.85;9.13;;;;;;;;;;5005428;28;20045;-76
2023/10/26 03:38:07;;;;;;;23.17;9.77;;;;;;;;;;5006362;28;20042;-76
2023/10/26 03:40:32;;;;;;;23.90;9.02;;;;;;;;;;5006128;28;20041;-76
2023/10/26 03:42:57;;;;;;;27.42;9.75;;;;;;;;;;4989381;28;20077;-76
2023/10/26 03:45:26;;;;;;;21.45;9.90;;;;;;;;;;4991923;28;20026;-76
2023/10/26 03:47:52;;;;;;;30.63;9.60;;;;;;;;;;5001695;28;20056;-76
2023/10/26 03:50:18;;;;;;;24.83;8.73;;;;;;;;;;5004729;28;20451;-76
2023/10/26 03:52:43;;;;;;;25.50;8.48;;;;;;;;;;5009300;28;20435;-76
2023/10/26 03:55:09;;;;;;;22.80;9.43;;;;;;;;;;5006659;28;20037;-76
2023/10/26 03:57:34;;;;;;;17.05;7.95;;;;;;;;;;5010537;28;20554;-75
2023/10/26 04:00:00;;;;;;;17.63;7.95;;;;;;;;;;5026881;28;20025;-76
2023/10/26 04:02:25;;;;;;;16.63;7.50;;;;;;;;;;5025914;28;20057;-76
2023/10/26 04:04:50;;;;;;;18.48;7.68;;;;;;;;;;5025733;28;20034;-76
2023/10/26 04:07:16;;;;;;;19.25;7.78;;;;;;;;;;5023787;28;20061;-75
2023/10/26 04:09:42;;;;;;;16.02;7.80;;;;;;;;;;5024658;28;20111;-76
2023/10/26 04:12:07;;;;;;;17.27;8.13;;;;;;;;;;5024205;28;20037;-76
2023/10/26 04:14:33;;;;;;;15.07;7.13;;;;;;;;;;5025417;28;20068;-76
2023/10/26 04:16:58;;;;;;;16.25;7.70;;;;;;;;;;5026291;28;20128;-76
2023/10/26 04:19:24;;;;;;;17.20;6.65;;;;;;;;;;5007075;28;20048;-76
2023/10/26 04:21:49;;;;;;;17.60;7.72;;;;;;;;;;5026038;28;20120;-76
2023/10/26 04:24:14;;;;;;;16.73;7.10;;;;;;;;;;5023423;28;20040;-75
2023/10/26 04:26:41;;;;;;;16.45;6.38;;;;;;;;;;5018283;28;20398;-75
2023/10/26 04:29:07;;;;;;;19.25;8.10;;;;;;;;;;5007363;28;20508;-75
2023/10/26 04:31:33;;;;;;;16.33;6.95;;;;;;;;;;5026239;28;20048;-75
2023/10/26 04:33:59;;;;;;;16.77;7.30;;;;;;;;;;5024384;28;20091;-75
2023/10/26 04:36:25;;;;;;;15.27;6.53;;;;;;;;;;5023606;28;20029;-75
2023/10/26 04:38:50;;;;;;;16.92;7.15;;;;;;;;;;5026093;28;20034;-75
2023/10/26 04:41:16;;;;;;;13.75;7.18;;;;;;;;;;5025472;28;20119;-75
2023/10/26 04:43:41;;;;;;;15.80;5.93;;;;;;;;;;5024915;28;20041;-75
2023/10/26 04:46:06;;;;;;;13.38;6.65;;;;;;;;;;5024200;28;20056;-75
2023/10/26 04:48:32;;;;;;;13.20;6.45;;;;;;;;;;5025128;28;20033;-75
2023/10/26 04:50:57;;;;;;;14.60;6.60;;;;;;;;;;5024303;28;20060;-76
2023/10/26 04:53:22;;;;;;;14.73;6.28;;;;;;;;;;5025056;28;20103;-75
2023/10/26 04:55:47;;;;;;;15.27;6.85;;;;;;;;;;5025505;28;20041;-75
2023/10/26 04:58:13;;;;;;;13.60;6.60;;;;;;;;;;5025086;28;20516;-75
2023/10/26 05:00:39;;;;;;;14.00;6.35;;;;;;;;;;5024242;28;20033;-76
2023/10/26 05:03:04;;;;;;;16.55;6.93;;;;;;;;;;5025043;28;20083;-75
2023/10/26 05:05:30;;;;;;;13.85;5.82;;;;;;;;;;5029495;28;20045;-75
2023/10/26 05:07:55;;;;;;;14.75;6.55;;;;;;;;;;5037198;28;20096;-75
2023/10/26 05:10:20;;;;;;;13.80;6.03;;;;;;;;;;5035735;28;20041;-76
2023/10/26 05:12:46;;;;;;;13.57;6.80;;;;;;;;;;5026721;28;20449;-75
2023/10/26 05:15:11;;;;;;;13.30;6.18;;;;;;;;;;5025049;28;20029;-75
2023/10/26 05:17:37;;;;;;;12.40;5.60;;;;;;;;;;5024716;28;20099;-75
2023/10/26 05:20:04;;;;;;;11.90;6.13;;;;;;;;;;5007702;28;20087;-75
2023/10/26 05:22:29;;;;;;;15.27;6.05;;;;;;;;;;5006887;28;20128;-76
2023/10/26 05:24:55;;;;;;;13.27;5.75;;;;;;;;;;5024036;28;20043;-76
2023/10/26 05:27:20;;;;;;;12.32;6.30;;;;;;;;;;5024326;28;20033;-75
2023/10/26 05:29:45;;;;;;;11.88;5.75;;;;;;;;;;5024574;28;20053;-76
2023/10/26 05:32:11;;;;;;;12.77;6.40;;;;;;;;;;5024500;28;20632;-76
2023/10/26 05:34:36;;;;;;;11.98;5.95;;;;;;;;;;5024070;28;20417;-76
2023/10/26 05:37:01;;;;;;;17.55;6.93;;;;;;;;;;5006465;28;20405;-76
2023/10/26 05:39:27;;;;;;;15.52;6.65;;;;;;;;;;5005778;28;20610;-75
2023/10/26 05:41:52;;;;;;;13.90;6.53;;;;;;;;;;5024990;28;20029;-76
2023/10/26 05:44:18;;;;;;;16.02;6.00;;;;;;;;;;5006186;28;20490;-76
2023/10/26 05:46:43;;;;;;;11.13;5.93;;;;;;;;;;5024223;28;20037;-76
2023/10/26 05:49:08;;;;;;;14.75;6.72;;;;;;;;;;5024301;28;20061;-76
2023/10/26 05:51:34;;;;;;;14.35;6.30;;;;;;;;;;5023486;28;20040;-76
2023/10/26 05:54:00;;;;;;;15.43;6.63;;;;;;;;;;5024698;28;20472;-76
2023/10/26 05:56:26;;;;;;;14.02;5.95;;;;;;;;;;5005861;28;20516;-76
2023/10/26 05:58:51;;;;;;;15.35;7.20;;;;;;;;;;5017081;28;20041;-76
2023/10/26 06:01:17;;;;;;;14.13;7.50;;;;;;;;;;5023965;28;20133;-76
2023/10/26 06:03:43;;;;;;;14.48;6.22;;;;;;;;;;5022038;28;20037;-76
2023/10/26 06:06:09;;;;;;;14.38;6.30;;;;;;;;;;5024231;28;20079;-76
2023/10/26 06:08:35;;;;;;;15.73;6.28;;;;;;;;;;5022928;28;20516;-76
2023/10/26 06:11:00;;;;;;;15.07;6.65;;;;;;;;;;5024107;28;20041;-76
2023/10/26 06:13:26;;;;;;;18.15;6.70;;;;;;;;;;5023183;28;20057;-76
2023/10/26 06:15:51;;;;;;;14.70;6.63;;;;;;;;;;5006139;28;20112;-76
2023/10/26 06:18:17;;;;;;;13.48;6.38;;;;;;;;;;5024398;28;20115;-75
2023/10/26 06:20:42;;;;;;;14.07;6.07;;;;;;;;;;5024406;28;20120;-75
2023/10/26 06:23:08;;;;;;;16.33;6.78;;;;;;;;;;5025012;28;20128;-76
2023/10/26 06:25:38;;;;;;;12.75;6.63;;;;;;;;;;5025693;28;20088;-75
2023/10/26 06:28:04;;;;;;;13.38;6.90;;;;;;;;;;5019063;28;20121;-76
2023/10/26 06:30:29;;;;;;;14.25;6.70;;;;;;;;;;5016311;28;20056;-76
2023/10/26 06:32:54;;;;;;;18.35;6.72;;;;;;;;;;5005026;28;20014;-75
2023/10/26 06:35:20;;;;;;;18.90;7.45;;;;;;;;;;5021806;28;20045;-75
2023/10/26 06:37:45;;;;;;;16.00;7.10;;;;;;;;;;5005855;28;20037;-76
2023/10/26 06:40:11;;;;;;;14.23;6.68;;;;;;;;;;5023436;28;20033;-75
2023/10/26 06:42:36;;;;;;;16.95;6.90;;;;;;;;;;5021531;28;20040;-76
2023/10/26 06:45:02;;;;;;;13.38;6.22;;;;;;;;;;5024014;28;20090;-76
2023/10/26 06:47:28;;;;;;;14.35;6.25;;;;;;;;;;5043424;28;20037;-76
2023/10/26 06:49:54;;;;;;;14.13;6.30;;;;;;;;;;5017684;28;20041;-76
2023/10/26 06:52:19;;;;;;;14.77;7.07;;;;;;;;;;5001211;28;20124;-76
2023/10/26 06:54:48;;;;;;;13.60;6.45;;;;;;;;;;5001650;28;20033;-76
2023/10/26 06:57:14;;;;;;;16.70;6.97;;;;;;;;;;5005800;28;20056;-76
2023/10/26 06:59:41;;;;;;;17.65;6.53;;;;;;;;;;5017716;28;20045;-75
2023/10/26 07:02:07;;;;;;;14.40;6.70;;;;;;;;;;5019115;28;20720;-76
2023/10/26 07:04:32;;;;;;;14.23;5.70;;;;;;;;;;5021292;28;20053;-76
2023/10/26 07:06:57;;;;;;;12.70;5.88;;;;;;;;;;5007769;28;20046;-76
2023/10/26 07:09:24;;;;;;;12.68;5.72;;;;;;;;;;5001950;28;20022;-76
2023/10/26 07:11:49;;;;;;;13.90;5.38;;;;;;;;;;5004676;28;20041;-75
2023/10/26 07:14:15;;;;;;;11.30;5.50;;;;;;;;;;5025268;28;20162;-76
2023/10/26 07:16:40;;;;;;;14.55;5.60;;;;;;;;;;5026212;28;20041;-76
2023/10/26 07:19:05;;;;;;;11.27;5.15;;;;;;;;;;5026408;28;20041;-76
2023/10/26 07:21:33;;;;;;;12.98;5.93;;;;;;;;;;5026169;28;20061;-76
2023/10/26 07:23:59;;;;;;;13.02;5.93;;;;;;;;;;5026422;28;20068;-75
2023/10/26 07:26:24;;;;;;;13.65;5.45;;;;;;;;;;5025182;28;20528;-75
2023/10/26 07:28:49;;;;;;;12.15;5.85;;;;;;;;;;5013661;28;20079;-76
2023/10/26 07:31:21;;;;;;;12.32;5.55;;;;;;;;;;5026358;28;20484;-76
2023/10/26 07:33:47;;;;;;;13.88;5.13;;;;;;;;;;5006434;28;20132;-75
2023/10/26 07:36:13;;;;;;;12.25;5.40;;;;;;;;;;4989049;28;20065;-74
2023/10/26 07:38:38;;;;;;;13.40;5.72;;;;;;;;;;5012072;28;20065;-76
2023/10/26 07:41:05;;;;;;;13.55;5.55;;;;;;;;;;5027123;28;20679;-76
2023/10/26 07:43:30;;;;;;;11.30;5.07;;;;;;;;;;5028463;28;20036;-75
2023/10/26 07:45:55;;;;;;;12.98;5.32;;;;;;;;;;5036286;28;20052;-75
2023/10/26 07:48:21;;;;;;;13.15;5.68;;;;;;;;;;5037282;28;20024;-75
2023/10/26 07:50:46;;;;;;;14.77;6.13;;;;;;;;;;5025822;28;20862;-75
2023/10/26 07:53:14;;;;;;;14.48;6.03;;;;;;;;;;5011754;28;20056;-75
2023/10/26 07:55:39;;;;;;;14.13;5.70;;;;;;;;;;5025622;28;20582;-76
2023/10/26 07:58:04;;;;;;;14.77;6.13;;;;;;;;;;5025064;28;20041;-75
2023/10/26 08:00:30;;;;;;;11.73;5.53;;;;;;;;;;5007558;28;20647;-75
2023/10/26 08:02:57;;;;;;;14.77;5.82;;;;;;;;;;5008116;28;20450;-75
2023/10/26 08:05:22;;;;;;;12.55;5.55;;;;;;;;;;5026407;28;20055;-75
2023/10/26 08:07:48;;;;;;;12.88;5.78;;;;;;;;;;5025315;28;20124;-75
2023/10/26 08:10:13;;;;;;;13.93;5.50;;;;;;;;;;5007529;28;20033;-75
2023/10/26 08:12:39;;;;;;;12.75;5.10;;;;;;;;;;5004951;28;20094;-75
2023/10/26 08:15:05;;;;;;;13.73;6.03;;;;;;;;;;5006299;28;20064;-75
2023/10/26 08:17:36;;;;;;;13.15;6.38;;;;;;;;;;5003576;28;20251;-76
2023/10/26 08:20:06;;;;;;;14.48;6.75;;;;;;;;;;5003593;28;20066;-75
2023/10/26 08:22:32;;;;;;;17.90;6.22;;;;;;;;;;4998841;28;20039;-75
2023/10/26 08:24:58;;;;;;;17.58;6.45;;;;;;;;;;4986211;28;20533;-75
2023/10/26 08:27:24;;;;;;;16.45;6.43;;;;;;;;;;4989817;28;20770;-76
2023/10/26 08:29:50;;;;;;;13.70;6.15;;;;;;;;;;5003859;28;20066;-75
2023/10/26 08:32:16;;;;;;;13.38;5.50;;;;;;;;;;5004271;28;20771;-75
2023/10/26 08:34:41;;;;;;;12.13;5.68;;;;;;;;;;5005325;28;20044;-75
2023/10/26 08:37:07;;;;;;;12.52;5.63;;;;;;;;;;5002458;28;20129;-75
2023/10/26 08:39:32;;;;;;;11.48;5.20;;;;;;;;;;4998250;28;20084;-75
2023/10/26 08:42:01;;;;;;;13.02;5.43;;;;;;;;;;5004212;28;20026;-75
2023/10/26 08:44:28;;;;;;;14.13;5.53;;;;;;;;;;5004342;28;20046;-75
2023/10/26 08:46:58;;;;;;;13.35;5.72;;;;;;;;;;5004686;28;20103;-75
2023/10/26 08:49:26;;;;;;;13.25;5.15;;;;;;;;;;5003253;28;20030;-75
2023/10/26 08:51:52;;;;;;;12.57;5.68;;;;;;;;;;5003798;28;20052;-75
2023/10/26 08:54:17;;;;;;;10.10;5.05;;;;;;;;;;5002175;28;20406;-75
2023/10/26 08:56:42;;;;;;;15.48;6.05;;;;;;;;;;5003402;28;20037;-75
2023/10/26 08:59:08;;;;;;;11.07;5.07;;;;;;;;;;5003765;28;20053;-74
2023/10/26 09:01:33;;;;;;;12.25;5.50;;;;;;;;;;5005726;28;20049;-75
2023/10/26 09:04:07;;;;;;;10.43;5.05;;;;;;;;;;5014198;28;20095;-75
2023/10/26 09:06:43;;;;;;;11.40;5.13;;;;;;;;;;5018586;28;20029;-75
2023/10/26 09:09:09;;;;;;;12.73;6.20;;;;;;;;;;5016633;28;20033;-75
2023/10/26 09:11:34;;;;;;;11.65;5.43;;;;;;;;;;5005365;28;20041;-74
2023/10/26 09:14:20;;;;;;;15.18;5.70;;;;;;;;;;4994045;28;20026;-75
2023/10/26 09:16:47;;;;;;;11.00;4.38;;;;;;;;;;5000028;28;20034;-74
2023/10/26 09:19:17;;;;;;;12.57;5.13;;;;;;;;;;5000373;28;20031;-73
2023/10/26 09:21:56;;;;;;;9.02;4.47;;;;;;;;;;4985401;28;20042;-74
2023/10/26 09:24:27;;;;;;;10.45;5.10;;;;;;;;;;4998774;28;20064;-74
2023/10/26 09:26:54;;;;;;;9.25;4.53;;;;;;;;;;5004440;28;20033;-73
2023/10/26 09:29:20;;;;;;;10.63;4.57;;;;;;;;;;5003344;28;20030;-73
2023/10/26 09:31:53;;;;;;;11.55;5.45;;;;;;;;;;5002625;28;20046;-74
2023/10/26 09:34:22;;;;;;;8.77;4.57;;;;;;;;;;5004284;28;20844;-74
2023/10/26 09:37:01;;;;;;;11.20;5.13;;;;;;;;;;5004255;28;20491;-74
2023/10/26 09:39:33;;;;;;;12.57;5.68;;;;;;;;;;5003108;28;20025;-74
2023/10/26 09:42:00;;;;;;;8.23;4.30;;;;;;;;;;5004575;28;20030;-74
2023/10/26 09:44:25;;;;;;;17.02;5.93;;;;;;;;;;5004233;28;20041;-74
2023/10/26 09:46:51;;;;;;;14.02;5.57;;;;;;;;;;5004708;28;20030;-74
2023/10/26 09:49:17;;;;;;;14.57;6.32;;;;;;;;;;5003802;28;20034;-74
2023/10/26 09:51:43;;;;;;;13.85;6.40;;;;;;;;;;5002672;28;20041;-74
2023/10/26 09:54:09;;;;;;;11.77;5.95;;;;;;;;;;5002801;28;20501;-74
2023/10/26 09:56:38;;;;;;;14.90;6.28;;;;;;;;;;5003931;28;20034;-74
2023/10/26 09:59:05;;;;;;;11.40;5.72;;;;;;;;;;4987479;28;20053;-74
2023/10/26 10:01:34;;;;;;;11.00;5.07;;;;;;;;;;4984504;28;20069;-74
2023/10/26 10:04:00;;;;;;;10.38;5.63;;;;;;;;;;4981579;28;20053;-73
2023/10/26 10:06:46;;;;;;;10.07;4.90;;;;;;;;;;4983485;28;20030;-74
2023/10/26 10:09:12;;;;;;;10.18;4.82;;;;;;;;;;4994473;28;20026;-74
2023/10/26 10:11:38;;;;;;;9.32;4.72;;;;;;;;;;4998907;28;20043;-74
2023/10/26 10:14:04;;;;;;;9.88;5.05;;;;;;;;;;5000483;28;20057;-74
2023/10/26 10:16:35;;;;;;;8.85;4.40;;;;;;;;;;4994194;28;20068;-74
2023/10/26 10:19:21;;;;;;;8.77;4.68;;;;;;;;;;5001973;28;20037;-74
2023/10/26 10:21:48;;;;;;;9.82;5.10;;;;;;;;;;5003837;28;20041;-74
2023/10/26 10:24:44;;;;;;;10.32;5.20;;;;;;;;;;5013290;28;20417;-74
2023/10/26 10:27:11;;;;;;;10.02;4.88;;;;;;;;;;5011424;28;20045;-74
2023/10/26 10:29:36;;;;;;;9.60;4.22;;;;;;;;;;5000022;28;20216;-74
2023/10/26 10:32:02;;;;;;;9.85;4.30;;;;;;;;;;5001837;28;20124;-74
2023/10/26 10:34:41;;;;;;;9.35;4.10;;;;;;;;;;5002130;28;20585;-74
2023/10/26 10:37:14;;;;;;;8.43;4.47;;;;;;;;;;4999768;28;20041;-74
2023/10/26 10:40:12;;;;;;;8.07;4.03;;;;;;;;;;4996187;28;20470;-74
2023/10/26 10:42:40;;;;;;;7.75;4.00;;;;;;;;;;4996364;28;20069;-74
2023/10/26 10:45:12;;;;;;;8.07;4.32;;;;;;;;;;5000184;28;20572;-74
2023/10/26 10:47:42;;;;;;;7.75;3.78;;;;;;;;;;5006213;28;20092;-75
2023/10/26 10:50:24;;;;;;;7.60;3.67;;;;;;;;;;5007329;28;20087;-74
2023/10/26 10:52:55;;;;;;;6.38;3.22;;;;;;;;;;5004462;28;20050;-74
2023/10/26 10:55:24;;;;;;;6.68;2.90;;;;;;;;;;5003393;28;20041;-75
2023/10/26 10:58:02;;;;;;;7.13;2.47;;;;;;;;;;5004296;28;20046;-75
2023/10/26 11:00:49;;;;;;;3.47;2.30;;;;;;;;;;5001232;28;20573;-75
2023/10/26 11:03:22;;;;;;;2.35;1.33;;;;;;;;;;4992301;28;20038;-75
2023/10/26 11:05:48;;;;;;;4.32;1.08;;;;;;;;;;4998107;28;20037;-74
2023/10/26 11:08:13;;;;;;;2.70;0.80;;;;;;;;;;5005116;28;20041;-74
2023/10/26 11:10:39;;;;;;;0.70;0.70;;;;;;;;;;5000910;28;20064;-74
2023/10/26 11:13:05;;;;;;;1.38;0.90;;;;;;;;;;4998992;28;20031;-75
2023/10/26 11:15:37;;;;;;;1.27;1.00;;;;;;;;;;4994620;28;20083;-75
2023/10/26 11:18:05;;;;;;;2.15;1.02;;;;;;;;;;5005260;28;20080;-75
2023/10/26 11:20:37;;;;;;;2.00;1.27;;;;;;;;;;5007062;28;20062;-74
2023/10/26 11:23:07;;;;;;;1.08;0.90;;;;;;;;;;5006600;28;20104;-75
2023/10/26 11:25:33;;;;;;;1.60;1.00;;;;;;;;;;4988530;28;20038;-74
2023/10/26 11:27:59;;;;;;;1.45;0.90;;;;;;;;;;5006833;28;20116;-74
2023/10/26 11:30:24;;;;;;;1.98;0.98;;;;;;;;;;5006679;28;20036;-74
2023/10/26 11:32:50;;;;;;;1.70;0.98;;;;;;;;;;5007430;28;20037;-74
2023/10/26 11:35:16;;;;;;;2.55;1.15;;;;;;;;;;5007577;28;20117;-74
2023/10/26 11:37:55;;;;;;;1.48;1.10;;;;;;;;;;5001217;28;20085;-75
2023/10/26 11:40:31;;;;;;;1.02;0.90;;;;;;;;;;4987315;28;20065;-75
2023/10/26 11:42:59;;;;;;;1.67;1.10;;;;;;;;;;4995411;28;20042;-75
2023/10/26 11:45:26;;;;;;;2.03;1.00;;;;;;;;;;5002215;28;20097;-75
2023/10/26 11:47:53;;;;;;;1.27;1.10;;;;;;;;;;4993117;28;20030;-74
2023/10/26 11:50:18;;;;;;;2.83;1.40;;;;;;;;;;4988420;28;20133;-74
2023/10/26 11:52:43;;;;;;;2.15;1.20;;;;;;;;;;4987680;28;20125;-73
2023/10/26 11:55:10;;;;;;;1.60;1.30;;;;;;;;;;4997510;28;20480;-74
2023/10/26 11:57:36;;;;;;;2.50;1.45;;;;;;;;;;5003561;28;20054;-75
2023/10/26 12:00:01;;;;;;;1.83;1.17;;;;;;;;;;5006933;28;20681;-75
2023/10/26 12:02:28;;;;;;;1.52;1.30;;;;;;;;;;5006630;28;20056;-74
2023/10/26 12:04:53;;;;;;;3.83;1.40;;;;;;;;;;5006745;28;20080;-74
2023/10/26 12:07:18;;;;;;;3.92;1.45;;;;;;;;;;5005841;28;20073;-74
2023/10/26 12:09:44;;;;;;;4.07;1.70;;;;;;;;;;5006597;28;20041;-77
2023/10/26 12:12:09;;;;;;;4.03;1.77;;;;;;;;;;5005129;28;20026;-74
2023/10/26 12:14:34;;;;;;;3.10;1.60;;;;;;;;;;5005359;28;20038;-73
2023/10/26 12:17:00;;;;;;;5.72;1.80;;;;;;;;;;5004762;28;20076;-74
2023/10/26 12:19:25;;;;;;;3.67;1.65;;;;;;;;;;4986035;28;20062;-74
2023/10/26 12:21:52;;;;;;;5.05;1.98;;;;;;;;;;4986832;28;20030;-73
2023/10/26 12:24:18;;;;;;;2.38;1.58;;;;;;;;;;4986448;28;20034;-74
2023/10/26 12:26:43;;;;;;;8.20;2.30;;;;;;;;;;4999783;28;20060;-74
2023/10/26 12:29:08;;;;;;;4.35;2.05;;;;;;;;;;5006537;28;20050;-74
2023/10/26 12:31:34;;;;;;;7.35;2.00;;;;;;;;;;5005521;28;20046;-73
2023/10/26 12:33:59;;;;;;;6.63;2.50;;;;;;;;;;5005702;28;20048;-73
2023/10/26 12:36:24;;;;;;;3.75;2.10;;;;;;;;;;5004037;28;20068;-73
2023/10/26 12:38:50;;;;;;;8.60;2.50;;;;;;;;;;5004579;28;20124;-75
2023/10/26 12:41:15;;;;;;;10.02;2.47;;;;;;;;;;4994990;28;20042;-74
2023/10/26 12:43:40;;;;;;;6.63;2.75;;;;;;;;;;4984816;28;20066;-74
2023/10/26 12:46:06;;;;;;;6.30;2.03;;;;;;;;;;4986102;28;20046;-74
2023/10/26 12:48:31;;;;;;;13.85;2.28;;;;;;;;;;4986259;28;20117;-73
2023/10/26 12:50:57;;;;;;;4.85;2.30;;;;;;;;;;4985162;28;20109;-74
2023/10/26 12:53:22;;;;;;;7.32;2.33;;;;;;;;;;4985984;28;20049;-75
2023/10/26 12:55:47;;;;;;;3.53;1.88;;;;;;;;;;4986182;28;20117;-74
2023/10/26 12:58:13;;;;;;;8.45;2.42;;;;;;;;;;4995851;28;20137;-75
2023/10/26 13:00:38;;;;;;;6.82;2.60;;;;;;;;;;5009875;28;20122;-75
2023/10/26 13:03:04;;;;;;;6.90;2.30;;;;;;;;;;5017205;28;20037;-75
2023/10/26 13:05:29;;;;;;;9.93;2.92;;;;;;;;;;5013560;28;20041;-75
2023/10/26 13:07:55;;;;;;;9.73;2.78;;;;;;;;;;5001593;28;20042;-75
2023/10/26 13:10:20;;;;;;;9.32;3.30;;;;;;;;;;5001930;28;20124;-76
2023/10/26 13:12:47;;;;;;;10.73;2.80;;;;;;;;;;4996889;28;20038;-75
2023/10/26 13:15:14;;;;;;;10.32;2.80;;;;;;;;;;4983675;28;20130;-75
2023/10/26 13:17:39;;;;;;;9.23;2.75;;;;;;;;;;4982472;28;20050;-75
2023/10/26 13:20:05;;;;;;;11.65;3.15;;;;;;;;;;4983535;28;20113;-75
2023/10/26 13:22:31;;;;;;;9.40;3.08;;;;;;;;;;4996950;28;20037;-74
2023/10/26 13:24:56;;;;;;;12.77;3.28;;;;;;;;;;5002482;28;20064;-74
2023/10/26 13:27:21;;;;;;;13.00;2.95;;;;;;;;;;5001140;28;20463;-75
2023/10/26 13:29:47;;;;;;;12.85;3.03;;;;;;;;;;5002793;28;20030;-74
2023/10/26 13:32:12;;;;;;;13.02;3.13;;;;;;;;;;5002310;28;20513;-74
2023/10/26 13:34:37;;;;;;;10.27;2.95;;;;;;;;;;5000085;28;20049;-74
2023/10/26 13:37:03;;;;;;;9.75;4.38;;;;;;;;;;5001790;28;20042;-75
2023/10/26 13:39:28;;;;;;;11.93;3.40;;;;;;;;;;5002512;28;20112;-74
2023/10/26 13:41:53;;;;;;;9.93;3.42;;;;;;;;;;5002806;28;20029;-75
2023/10/26 13:44:19;;;;;;;11.90;3.08;;;;;;;;;;4999606;28;20045;-74
2023/10/26 13:46:44;;;;;;;10.88;3.28;;;;;;;;;;5002766;28;20038;-74
2023/10/26 13:49:11;;;;;;;10.02;3.00;;;;;;;;;;5001696;28;20038;-74
2023/10/26 13:51:36;;;;;;;12.38;3.25;;;;;;;;;;5000834;28;20420;-74
2023/10/26 13:54:02;;;;;;;10.70;3.88;;;;;;;;;;5002511;28;20477;-74
2023/10/26 13:56:28;;;;;;;14.38;3.30;;;;;;;;;;5000513;28;20586;-74
2023/10/26 13:58:53;;;;;;;16.92;3.20;;;;;;;;;;5000359;28;20057;-74
2023/10/26 14:01:18;;;;;;;16.20;3.72;;;;;;;;;;5002144;28;20073;-74
2023/10/26 14:03:44;;;;;;;12.32;3.20;;;;;;;;;;5001882;28;20046;-74
2023/10/26 14:06:11;;;;;;;12.20;3.63;;;;;;;;;;5002234;28;20033;-74
2023/10/26 14:08:36;;;;;;;14.63;3.50;;;;;;;;;;5002282;28;20038;-74
2023/10/26 14:11:02;;;;;;;14.00;3.15;;;;;;;;;;5002036;28;20038;-74
2023/10/26 14:13:28;;;;;;;18.15;3.40;;;;;;;;;;4990721;28;20037;-74
2023/10/26 14:15:53;;;;;;;16.55;4.82;;;;;;;;;;4983111;28;20035;-74
2023/10/26 14:18:19;;;;;;;11.88;2.80;;;;;;;;;;4996704;28;20030;-75
2023/10/26 14:20:44;;;;;;;9.82;2.45;;;;;;;;;;5010443;28;20722;-75
2023/10/26 14:23:09;;;;;;;8.85;2.60;;;;;;;;;;5020496;28;20088;-74
2023/10/26 14:25:35;;;;;;;16.08;3.60;;;;;;;;;;5019838;28;20539;-74
2023/10/26 14:28:00;;;;;;;12.82;2.70;;;;;;;;;;5010293;28;20399;-74
2023/10/26 14:30:26;;;;;;;13.18;2.75;;;;;;;;;;5007265;28;20524;-74